createdAt,value
2023-03-03T00:00:09.113Z,70.90
2023-03-03T00:05:35.795Z,71.80
2023-03-03T00:10:39.761Z,72.00
2023-03-03T00:15:43.365Z,72.70
2023-03-03T00:20:53.368Z,72.80
2023-03-03T00:25:57.543Z,73.20
2023-03-03T00:31:03.474Z,73.80
2023-03-03T00:36:37.206Z,74.20
2023-03-03T00:41:41.533Z,75.40
2023-03-03T00:46:44.903Z,74.80
2023-03-03T00:51:49.669Z,75.30
2023-03-03T00:56:53.077Z,75.30
2023-03-03T01:01:56.504Z,75.30
2023-03-03T01:07:01.274Z,75.80
2023-03-03T01:12:04.933Z,76.20
2023-03-03T01:17:08.870Z,76.30
2023-03-03T01:22:13.564Z,76.50
2023-03-03T01:27:17.151Z,76.50
2023-03-03T01:32:20.758Z,76.60
2023-03-03T01:37:25.676Z,76.60
2023-03-03T01:42:30.113Z,76.60
2023-03-03T01:47:36.092Z,76.40
2023-03-03T01:52:44.455Z,77.40
2023-03-03T01:57:53.769Z,76.60
2023-03-03T02:02:57.463Z,76.60
2023-03-03T02:08:02.734Z,76.70
2023-03-03T02:13:06.486Z,76.70
2023-03-03T02:18:13.426Z,76.50
2023-03-03T02:23:24.034Z,76.80
2023-03-03T02:28:30.988Z,76.90
2023-03-03T02:33:34.476Z,76.80
2023-03-03T02:38:42.716Z,76.60
2023-03-03T02:43:56.408Z,77.10
2023-03-03T02:48:59.766Z,77.20
2023-03-03T02:54:03.875Z,77.40
2023-03-03T02:59:09.055Z,77.60
2023-03-03T03:04:14.706Z,77.70
2023-03-03T03:09:19.494Z,77.80
2023-03-03T03:14:24.740Z,78.30
2023-03-03T03:19:28.336Z,78.80
2023-03-03T03:24:32.053Z,79.00
2023-03-03T03:29:36.887Z,79.30
2023-03-03T03:34:40.283Z,79.40
2023-03-03T03:39:43.905Z,80.30
2023-03-03T03:44:49.328Z,79.60
2023-03-03T03:49:52.828Z,80.10
2023-03-03T03:54:56.215Z,80.00
2023-03-03T04:00:01.263Z,80.00
2023-03-03T04:05:07.398Z,80.30
2023-03-03T04:10:12.222Z,80.90
2023-03-03T04:15:17.021Z,81.20
2023-03-03T04:20:20.679Z,81.80
2023-03-03T04:25:24.155Z,82.00
2023-03-03T04:30:28.998Z,81.90
2023-03-03T04:35:32.504Z,82.10
2023-03-03T04:40:35.931Z,82.10
2023-03-03T04:45:41.263Z,82.20
2023-03-03T04:50:44.683Z,82.30
2023-03-03T04:55:48.080Z,82.40
2023-03-03T05:00:57.470Z,82.40
2023-03-03T05:06:00.889Z,82.30
2023-03-03T05:11:06.755Z,83.30
2023-03-03T05:16:11.574Z,82.20
2023-03-03T05:21:14.972Z,82.80
2023-03-03T05:26:18.345Z,81.90
2023-03-03T05:31:23.593Z,81.90
2023-03-03T05:36:27.189Z,82.40
2023-03-03T05:41:30.734Z,82.40
2023-03-03T05:46:35.824Z,82.60
2023-03-03T05:51:39.479Z,82.80
2023-03-03T05:56:42.975Z,82.90
2023-03-03T06:01:48.106Z,82.90
2023-03-03T06:06:51.486Z,82.80
2023-03-03T06:11:54.870Z,82.80
2023-03-03T06:16:59.876Z,82.90
2023-03-03T06:22:03.309Z,82.90
2023-03-03T06:27:06.951Z,83.10
2023-03-03T06:32:12.051Z,83.70
2023-03-03T06:37:15.508Z,83.50
2023-03-03T06:42:18.981Z,83.50
2023-03-03T06:47:24.584Z,83.50
2023-03-03T06:52:29.379Z,83.80
2023-03-03T06:57:34.743Z,83.80
2023-03-03T07:02:39.536Z,83.60
2023-03-03T07:07:43.254Z,84.10
2023-03-03T07:12:46.673Z,84.40
2023-03-03T07:17:58.093Z,84.70
2023-03-03T07:23:01.826Z,84.80
2023-03-03T07:28:21.634Z,85.00
2023-03-03T07:33:29.131Z,84.90
2023-03-03T07:38:36.940Z,84.90
2023-03-03T07:43:44.673Z,84.80
2023-03-03T07:48:50.464Z,84.80
2023-03-03T07:53:54.981Z,84.50
2023-03-03T07:58:59.388Z,84.30
2023-03-03T08:04:08.247Z,84.20
2023-03-03T08:09:37.777Z,84.10
2023-03-03T08:14:41.285Z,83.70
2023-03-03T08:19:46.058Z,83.50
2023-03-03T08:24:49.920Z,83.50
2023-03-03T08:29:53.349Z,83.30
2023-03-03T08:34:58.120Z,83.20
2023-03-03T08:40:01.510Z,83.40
2023-03-03T08:45:05.335Z,83.00
2023-03-03T08:50:11.035Z,83.20
2023-03-03T08:55:15.286Z,82.90
2023-03-03T09:00:20.105Z,83.30
2023-03-03T09:05:25.671Z,83.30
2023-03-03T09:10:31.854Z,83.20
2023-03-03T09:15:37.119Z,83.30
2023-03-03T09:20:42.991Z,83.20
2023-03-03T09:25:47.119Z,83.20
2023-03-03T09:30:51.707Z,83.30
2023-03-03T09:36:04.317Z,82.90
2023-03-03T09:41:37.457Z,83.20
2023-03-03T09:46:54.158Z,83.30
2023-03-03T09:52:23.037Z,83.10
2023-03-03T09:57:36.966Z,82.90
2023-03-03T10:02:59.721Z,82.50
2023-03-03T10:08:22.982Z,82.60
2023-03-03T10:13:45.777Z,82.70
2023-03-03T10:18:57.026Z,82.80
2023-03-03T10:24:16.885Z,82.80
2023-03-03T10:29:34.067Z,82.30
2023-03-03T10:35:04.379Z,82.50
2023-03-03T10:40:23.467Z,82.60
2023-03-03T10:45:44.583Z,82.70
2023-03-03T10:50:53.973Z,82.80
2023-03-03T10:56:12.587Z,82.60
2023-03-03T11:01:26.345Z,82.50
2023-03-03T11:06:39.376Z,82.70
2023-03-03T11:11:53.403Z,83.00
2023-03-03T11:17:05.972Z,82.50
2023-03-03T11:22:24.665Z,82.50
2023-03-03T11:27:49.154Z,82.20
2023-03-03T11:33:00.369Z,82.20
2023-03-03T11:38:22.007Z,82.20
2023-03-03T11:43:37.106Z,81.80
2023-03-03T11:48:49.597Z,81.30
2023-03-03T11:54:00.865Z,81.00
2023-03-03T11:59:23.220Z,80.50
2023-03-03T12:04:32.861Z,82.30
2023-03-03T12:09:45.083Z,82.10
2023-03-03T12:15:00.937Z,82.20
2023-03-03T12:20:14.813Z,81.60
2023-03-03T12:25:29.251Z,81.20
2023-03-03T12:30:55.976Z,80.90
2023-03-03T12:36:12.113Z,80.90
2023-03-03T12:41:21.833Z,80.20
2023-03-03T12:46:36.665Z,80.80
2023-03-03T12:52:06.990Z,80.70
2023-03-03T12:57:20.616Z,80.50
2023-03-03T13:02:44.581Z,80.20
2023-03-03T13:07:58.726Z,79.90
2023-03-03T13:13:09.971Z,80.10
2023-03-03T13:18:32.556Z,79.80
2023-03-03T13:23:46.797Z,79.70
2023-03-03T13:29:00.734Z,79.60
2023-03-03T13:34:06.657Z,79.40
2023-03-03T13:39:19.676Z,79.10
2023-03-03T13:44:27.852Z,79.00
2023-03-03T13:49:54.780Z,78.50
2023-03-03T13:55:15.030Z,78.50
2023-03-03T14:00:28.332Z,78.60
2023-03-03T14:05:39.242Z,78.30
2023-03-03T14:10:48.635Z,79.40
2023-03-03T14:15:57.016Z,78.60
2023-03-03T14:21:09.199Z,78.90
2023-03-03T14:26:14.168Z,79.00
2023-03-03T14:31:22.552Z,78.80
2023-03-03T14:36:33.225Z,78.60
2023-03-03T14:41:40.649Z,78.80
2023-03-03T14:46:45.399Z,79.10
2023-03-03T14:51:50.940Z,78.80
2023-03-03T14:57:01.539Z,78.20
2023-03-03T15:02:28.699Z,78.30
2023-03-03T15:07:37.132Z,78.00
2023-03-03T15:12:42.308Z,77.80
2023-03-03T15:17:57.449Z,78.00
2023-03-03T15:23:29.174Z,78.00
2023-03-03T15:28:43.942Z,77.60
2023-03-03T15:33:57.166Z,77.70
2023-03-03T15:39:14.242Z,77.90
2023-03-03T15:44:24.449Z,77.90
2023-03-03T15:49:55.041Z,78.00
2023-03-03T15:55:13.899Z,78.00
2023-03-03T16:00:34.739Z,77.60
2023-03-03T16:05:47.996Z,77.30
2023-03-03T16:11:00.724Z,78.10
2023-03-03T16:16:17.573Z,78.50
2023-03-03T16:21:31.596Z,78.90
2023-03-03T16:26:47.600Z,78.80
2023-03-03T16:31:56.552Z,78.50
2023-03-03T16:37:08.297Z,78.80
2023-03-03T16:42:23.664Z,79.00
2023-03-03T16:47:40.070Z,78.90
2023-03-03T16:52:49.565Z,78.60
2023-03-03T16:58:07.360Z,78.60
2023-03-03T17:03:43.093Z,78.50
2023-03-03T17:09:33.256Z,78.80
2023-03-03T17:14:57.991Z,79.00
2023-03-03T17:20:15.311Z,79.40
2023-03-03T17:25:24.911Z,79.60
2023-03-03T17:30:41.062Z,79.60
2023-03-03T17:36:09.245Z,79.70
2023-03-03T17:41:18.352Z,79.40
2023-03-03T17:46:31.527Z,79.70
2023-03-03T17:52:00.920Z,79.90
2023-03-03T17:57:18.718Z,80.20
2023-03-03T18:03:02.527Z,80.40
2023-03-03T18:08:25.788Z,80.70
2023-03-03T18:14:03.154Z,80.70
2023-03-03T18:19:23.228Z,81.00
2023-03-03T18:24:36.805Z,81.20
2023-03-03T18:29:40.369Z,81.00
2023-03-03T18:34:45.357Z,80.60
2023-03-03T18:39:50.939Z,81.00
2023-03-03T18:44:55.807Z,81.40
2023-03-03T18:50:15.923Z,81.50
2023-03-03T18:55:27.145Z,81.60
2023-03-03T19:00:31.776Z,81.70
2023-03-03T19:05:47.567Z,82.30
2023-03-03T19:10:57.950Z,82.30
2023-03-03T19:16:02.847Z,82.50
2023-03-03T19:21:21.967Z,82.80
2023-03-03T19:26:56.714Z,82.50
2023-03-03T19:32:12.857Z,82.70
2023-03-03T19:37:32.260Z,82.90
2023-03-03T19:42:47.654Z,82.90
2023-03-03T19:47:58.559Z,82.80
2023-03-03T19:53:14.791Z,83.30
2023-03-03T19:58:29.883Z,83.80
2023-03-03T20:04:12.284Z,83.90
2023-03-03T20:09:26.756Z,84.30
2023-03-03T20:14:44.362Z,83.90
2023-03-03T20:19:56.990Z,83.60
2023-03-03T20:25:26.251Z,83.60
2023-03-03T20:30:48.434Z,84.10
2023-03-03T20:36:03.116Z,84.60
2023-03-03T20:41:17.283Z,84.90
2023-03-03T20:46:27.896Z,84.60
2023-03-03T20:51:40.360Z,84.50
2023-03-03T20:56:53.173Z,84.60
2023-03-03T21:02:06.009Z,84.60
2023-03-03T21:07:09.515Z,84.40
2023-03-03T21:12:29.240Z,84.30
2023-03-03T21:17:32.863Z,84.10
2023-03-03T21:22:36.639Z,84.40
2023-03-03T21:27:41.422Z,85.00
2023-03-03T21:32:45.922Z,85.90
2023-03-03T21:37:51.447Z,85.40
2023-03-03T21:42:58.928Z,85.40
2023-03-03T21:48:05.341Z,85.60
2023-03-03T21:53:08.806Z,85.40
2023-03-03T21:58:13.659Z,85.70
2023-03-03T22:03:20.301Z,86.60
2023-03-03T22:08:23.684Z,86.80
2023-03-03T22:13:28.591Z,86.70
2023-03-03T22:18:32.006Z,86.20
2023-03-03T22:23:36.396Z,85.90
2023-03-03T22:28:44.184Z,86.30
2023-03-03T22:33:51.959Z,86.60
2023-03-03T22:38:55.638Z,86.60
2023-03-03T22:44:00.757Z,86.70
2023-03-03T22:49:04.711Z,86.80
2023-03-03T22:54:08.130Z,86.90
2023-03-03T22:59:13.220Z,86.80
2023-03-03T23:04:16.665Z,86.60
2023-03-03T23:09:20.119Z,86.50
2023-03-03T23:14:24.925Z,86.90
2023-03-03T23:19:28.297Z,88.10
2023-03-03T23:24:33.168Z,87.00
2023-03-03T23:29:39.129Z,86.70
2023-03-03T23:34:42.534Z,86.70
2023-03-03T23:39:46.162Z,87.00
2023-03-03T23:44:51.157Z,87.10
2023-03-03T23:49:54.647Z,86.70
2023-03-03T23:54:58.084Z,86.70
